createdAt,value
2023-02-22T00:01:03.024Z,16.77
2023-02-22T00:03:35.057Z,18.03
2023-02-22T00:06:05.100Z,17.80
2023-02-22T00:08:35.651Z,18.47
2023-02-22T00:11:08.559Z,19.43
2023-02-22T00:13:37.546Z,16.27
2023-02-22T00:16:05.230Z,18.10
2023-02-22T00:18:32.050Z,17.67
2023-02-22T00:21:00.858Z,17.60
2023-02-22T00:23:30.140Z,17.87
2023-02-22T00:25:58.444Z,14.33
2023-02-22T00:28:25.996Z,17.07
2023-02-22T00:30:54.924Z,17.40
2023-02-22T00:33:22.454Z,13.27
2023-02-22T00:35:49.595Z,12.60
2023-02-22T00:38:18.585Z,18.00
2023-02-22T00:40:45.996Z,13.93
2023-02-22T00:43:13.493Z,15.27
2023-02-22T00:45:40.362Z,17.40
2023-02-22T00:48:08.666Z,11.37
2023-02-22T00:50:36.586Z,17.43
2023-02-22T00:53:05.424Z,18.10
2023-02-22T00:55:34.601Z,12.40
2023-02-22T00:58:02.170Z,14.87
2023-02-22T01:00:32.427Z,15.70
2023-02-22T01:02:59.640Z,14.30
2023-02-22T01:05:29.279Z,15.13
2023-02-22T01:07:58.141Z,16.13
2023-02-22T01:10:28.160Z,14.03
2023-02-22T01:12:55.898Z,15.93
2023-02-22T01:15:25.082Z,15.27
2023-02-22T01:17:53.677Z,15.13
2023-02-22T01:20:29.202Z,17.27
2023-02-22T01:22:58.995Z,14.97
2023-02-22T01:25:29.056Z,18.40
2023-02-22T01:27:57.356Z,13.03
2023-02-22T01:30:27.715Z,13.67
2023-02-22T01:32:54.912Z,20.93
2023-02-22T01:35:26.196Z,19.20
2023-02-22T01:37:53.032Z,19.13
2023-02-22T01:40:26.693Z,20.83
2023-02-22T01:42:57.854Z,16.83
2023-02-22T01:45:30.826Z,20.47
2023-02-22T01:48:04.232Z,15.17
2023-02-22T01:50:35.545Z,17.90
2023-02-22T01:53:03.839Z,15.63
2023-02-22T01:55:32.796Z,18.00
2023-02-22T01:57:59.816Z,18.93
2023-02-22T02:00:27.738Z,12.93
2023-02-22T02:03:06.529Z,18.73
2023-02-22T02:05:35.311Z,20.13
2023-02-22T02:08:14.603Z,17.60
2023-02-22T02:10:42.885Z,19.10
2023-02-22T02:13:10.342Z,17.33
2023-02-22T02:15:37.357Z,26.77
2023-02-22T02:18:07.160Z,17.03
2023-02-22T02:21:00.934Z,19.37
2023-02-22T02:24:13.441Z,15.60
2023-02-22T02:26:40.253Z,17.93
2023-02-22T02:29:21.819Z,19.47
2023-02-22T02:32:03.507Z,20.43
2023-02-22T02:35:16.692Z,23.40
2023-02-22T02:38:11.962Z,16.73
2023-02-22T02:40:49.422Z,17.33
2023-02-22T02:43:29.305Z,19.10
2023-02-22T02:46:04.195Z,20.47
2023-02-22T02:48:34.514Z,26.47
2023-02-22T02:51:05.787Z,16.43
2023-02-22T02:53:39.472Z,16.57
2023-02-22T02:56:07.718Z,16.13
2023-02-22T02:58:34.982Z,16.93
2023-02-22T03:01:04.596Z,17.73
2023-02-22T03:03:53.752Z,18.77
2023-02-22T03:06:41.689Z,22.53
2023-02-22T03:09:24.723Z,20.77
2023-02-22T03:12:02.265Z,17.83
2023-02-22T03:14:45.764Z,17.77
2023-02-22T03:17:30.305Z,19.90
2023-02-22T03:20:10.537Z,12.93
2023-02-22T03:22:48.184Z,18.10
2023-02-22T03:25:20.790Z,18.67
2023-02-22T03:27:49.965Z,18.33
2023-02-22T03:30:45.545Z,16.63
2023-02-22T03:33:20.538Z,19.40
2023-02-22T03:35:57.077Z,14.33
2023-02-22T03:38:27.173Z,15.57
2023-02-22T03:40:59.358Z,13.57
2023-02-22T03:43:31.721Z,18.27
2023-02-22T03:45:59.952Z,22.47
2023-02-22T03:48:46.053Z,17.67
2023-02-22T03:51:16.962Z,16.13
2023-02-22T03:53:44.806Z,16.03
2023-02-22T03:56:20.147Z,18.13
2023-02-22T03:58:49.287Z,17.47
2023-02-22T04:01:17.781Z,17.70
2023-02-22T04:03:44.846Z,17.00
2023-02-22T04:06:12.535Z,18.47
2023-02-22T04:08:39.565Z,19.67
2023-02-22T04:11:06.882Z,17.60
2023-02-22T04:13:33.809Z,16.90
2023-02-22T04:16:00.754Z,19.03
2023-02-22T04:18:28.056Z,16.30
2023-02-22T04:20:54.865Z,18.60
2023-02-22T04:23:22.262Z,15.10
2023-02-22T04:25:49.524Z,17.00
2023-02-22T04:28:16.411Z,21.17
2023-02-22T04:30:44.056Z,16.87
2023-02-22T04:33:11.064Z,16.93
2023-02-22T04:35:38.196Z,20.80
2023-02-22T04:38:05.460Z,16.67
2023-02-22T04:40:32.436Z,19.93
2023-02-22T04:43:00.390Z,24.40
2023-02-22T04:45:27.507Z,19.97
2023-02-22T04:47:54.358Z,18.47
2023-02-22T04:50:21.388Z,17.70
2023-02-22T04:52:48.972Z,17.47
2023-02-22T04:55:16.741Z,17.73
2023-02-22T04:57:43.657Z,23.17
2023-02-22T05:00:11.304Z,20.20
2023-02-22T05:02:41.403Z,15.37
2023-02-22T05:05:08.766Z,18.20
2023-02-22T05:07:35.993Z,16.03
2023-02-22T05:10:03.063Z,13.93
2023-02-22T05:12:30.672Z,17.67
2023-02-22T05:14:57.510Z,18.70
2023-02-22T05:17:24.367Z,19.37
2023-02-22T05:19:51.229Z,16.03
2023-02-22T05:22:18.189Z,19.73
2023-02-22T05:24:45.042Z,26.53
2023-02-22T05:27:12.302Z,18.87
2023-02-22T05:29:39.201Z,19.13
2023-02-22T05:32:06.908Z,18.47
2023-02-22T05:34:33.864Z,20.30
2023-02-22T05:37:00.730Z,26.93
2023-02-22T05:39:27.579Z,27.50
2023-02-22T05:41:54.522Z,22.57
2023-02-22T05:44:21.392Z,21.43
2023-02-22T05:46:48.294Z,22.40
2023-02-22T05:49:15.908Z,23.53
2023-02-22T05:51:43.162Z,15.37
2023-02-22T05:54:09.989Z,29.83
2023-02-22T05:56:36.926Z,44.77
2023-02-22T05:59:03.785Z,61.47
2023-02-22T06:01:30.613Z,61.37
2023-02-22T06:03:57.932Z,81.37
2023-02-22T06:06:24.821Z,121.40
2023-02-22T06:08:51.781Z,120.63
2023-02-22T06:11:19.934Z,149.83
2023-02-22T06:13:53.765Z,149.27
2023-02-22T06:16:22.519Z,120.03
2023-02-22T06:18:49.808Z,101.90
2023-02-22T06:21:18.315Z,104.13
2023-02-22T06:23:45.375Z,125.57
2023-02-22T06:26:12.223Z,132.30
2023-02-22T06:28:39.061Z,119.43
2023-02-22T06:31:06.039Z,111.57
2023-02-22T06:33:32.874Z,109.13
2023-02-22T06:35:59.714Z,109.10
2023-02-22T06:38:27.918Z,101.57
2023-02-22T06:40:55.423Z,88.47
2023-02-22T06:43:24.743Z,78.83
2023-02-22T06:45:52.591Z,71.07
2023-02-22T06:48:19.601Z,73.37
2023-02-22T06:50:46.538Z,69.20
2023-02-22T06:53:13.363Z,64.03
2023-02-22T06:55:40.208Z,73.67
2023-02-22T06:58:07.061Z,68.57
2023-02-22T07:00:33.970Z,60.87
2023-02-22T07:03:03.948Z,62.53
2023-02-22T07:05:31.075Z,48.83
2023-02-22T07:08:06.784Z,54.77
2023-02-22T07:10:35.649Z,56.03
2023-02-22T07:13:03.510Z,50.33
2023-02-22T07:15:32.860Z,75.63
2023-02-22T07:18:00.777Z,92.27
2023-02-22T07:20:30.145Z,81.83
2023-02-22T07:22:57.152Z,86.57
2023-02-22T07:25:24.646Z,71.53
2023-02-22T07:27:52.593Z,62.57
2023-02-22T07:30:25.799Z,62.23
2023-02-22T07:32:54.983Z,43.93
2023-02-22T07:35:27.846Z,44.33
2023-02-22T07:37:56.164Z,38.17
2023-02-22T07:40:24.924Z,39.00
2023-02-22T07:43:00.435Z,31.43
2023-02-22T07:45:32.950Z,36.10
2023-02-22T07:48:01.187Z,24.97
2023-02-22T07:50:30.849Z,26.70
2023-02-22T07:52:59.949Z,22.43
2023-02-22T07:55:29.101Z,22.00
2023-02-22T07:58:02.276Z,22.47
2023-02-22T08:00:48.559Z,23.83
2023-02-22T08:03:16.873Z,23.23
2023-02-22T08:05:48.098Z,25.40
2023-02-22T08:08:18.730Z,19.00
2023-02-22T08:10:47.221Z,22.30
2023-02-22T08:13:14.294Z,28.00
2023-02-22T08:15:42.862Z,20.20
2023-02-22T08:18:13.835Z,20.97
2023-02-22T08:20:42.358Z,19.00
2023-02-22T08:23:10.031Z,20.60
2023-02-22T08:25:37.530Z,23.73
2023-02-22T08:28:10.739Z,21.37
2023-02-22T08:30:40.436Z,20.57
2023-02-22T08:33:07.599Z,15.47
2023-02-22T08:35:34.742Z,17.37
2023-02-22T08:38:03.932Z,27.30
2023-02-22T08:40:33.697Z,18.47
2023-02-22T08:43:01.805Z,17.73
2023-02-22T08:45:29.155Z,21.10
2023-02-22T08:47:56.290Z,18.57
2023-02-22T08:50:24.445Z,19.57
2023-02-22T08:52:53.786Z,21.97
2023-02-22T08:55:26.395Z,22.40
2023-02-22T08:57:53.324Z,27.87
2023-02-22T09:00:24.843Z,24.13
2023-02-22T09:02:53.038Z,19.07
2023-02-22T09:05:20.861Z,21.07
2023-02-22T09:07:48.918Z,20.17
2023-02-22T09:10:18.517Z,20.75
2023-02-22T09:12:45.384Z,22.27
2023-02-22T09:15:15.087Z,23.20
2023-02-22T09:17:42.378Z,22.73
2023-02-22T09:20:12.173Z,19.48
2023-02-22T09:22:39.704Z,18.10
2023-02-22T09:25:16.363Z,23.55
2023-02-22T09:27:45.100Z,21.80
2023-02-22T09:30:24.053Z,16.77
2023-02-22T09:32:54.342Z,19.63
2023-02-22T09:35:27.562Z,17.25
2023-02-22T09:37:56.602Z,13.13
2023-02-22T09:40:25.908Z,20.45
2023-02-22T09:42:57.136Z,18.23
2023-02-22T09:45:32.032Z,16.08
2023-02-22T09:48:15.266Z,17.05
2023-02-22T09:50:51.400Z,17.83
2023-02-22T09:53:31.658Z,21.37
2023-02-22T09:56:06.749Z,18.37
2023-02-22T09:58:52.805Z,17.70
2023-02-22T10:01:32.731Z,22.80
2023-02-22T10:04:20.002Z,17.27
2023-02-22T10:06:56.503Z,20.97
2023-02-22T10:09:29.290Z,19.03
2023-02-22T10:12:03.699Z,16.00
2023-02-22T10:14:43.784Z,18.03
2023-02-22T10:17:31.940Z,17.43
2023-02-22T10:20:07.937Z,19.30
2023-02-22T10:23:12.290Z,15.37
2023-02-22T10:25:39.716Z,15.87
2023-02-22T10:28:17.673Z,10.47
2023-02-22T10:30:56.216Z,13.03
2023-02-22T10:33:39.802Z,14.80
2023-02-22T10:36:15.199Z,11.27
2023-02-22T10:38:46.294Z,11.60
2023-02-22T10:41:27.205Z,10.20
2023-02-22T10:43:54.142Z,9.37
2023-02-22T10:46:22.430Z,16.00
2023-02-22T10:48:54.506Z,14.20
2023-02-22T10:51:21.565Z,13.47
2023-02-22T10:54:16.735Z,14.03
2023-02-22T10:56:48.826Z,10.60
2023-02-22T10:59:30.512Z,13.30
2023-02-22T11:01:57.775Z,17.87
2023-02-22T11:04:25.122Z,21.50
2023-02-22T11:07:10.124Z,17.53
2023-02-22T11:09:53.834Z,14.63
2023-02-22T11:12:27.640Z,17.90
2023-02-22T11:14:54.876Z,16.07
2023-02-22T11:17:41.156Z,17.47
2023-02-22T11:20:18.038Z,11.73
2023-02-22T11:22:44.953Z,16.70
2023-02-22T11:25:22.582Z,11.83
2023-02-22T11:27:49.491Z,13.43
2023-02-22T11:30:25.461Z,12.67
2023-02-22T11:33:17.016Z,14.43
2023-02-22T11:35:53.394Z,12.37
2023-02-22T11:38:24.478Z,18.07
2023-02-22T11:41:24.920Z,46.37
2023-02-22T11:43:54.419Z,32.67
2023-02-22T11:46:22.672Z,31.00
2023-02-22T11:49:05.946Z,23.90
2023-02-22T11:51:57.020Z,12.23
2023-02-22T11:55:09.912Z,12.07
2023-02-22T11:58:08.473Z,14.57
2023-02-22T12:00:56.213Z,15.43
2023-02-22T12:03:44.830Z,14.23
2023-02-22T12:06:33.571Z,16.90
2023-02-22T12:09:15.671Z,10.47
2023-02-22T12:12:07.946Z,12.87
2023-02-22T12:14:53.152Z,14.17
2023-02-22T12:17:43.608Z,14.23
2023-02-22T12:20:45.720Z,15.67
2023-02-22T12:23:15.389Z,17.00
2023-02-22T12:26:09.157Z,12.70
2023-02-22T12:28:48.832Z,17.77
2023-02-22T12:31:25.918Z,11.37
2023-02-22T12:34:03.482Z,11.30
2023-02-22T12:36:46.933Z,15.13
2023-02-22T12:39:52.219Z,13.77
2023-02-22T12:43:01.745Z,16.67
2023-02-22T12:45:36.044Z,18.03
2023-02-22T12:48:19.983Z,16.37
2023-02-22T12:50:50.790Z,14.70
2023-02-22T12:53:25.813Z,10.60
2023-02-22T12:56:03.323Z,15.90
2023-02-22T12:58:39.633Z,11.00
2023-02-22T13:01:20.628Z,17.80
2023-02-22T13:03:49.199Z,16.43
2023-02-22T13:06:38.189Z,11.17
2023-02-22T13:09:17.292Z,15.53
2023-02-22T13:12:07.179Z,14.20
2023-02-22T13:14:54.903Z,10.73
2023-02-22T13:17:40.356Z,17.13
2023-02-22T13:20:19.018Z,12.80
2023-02-22T13:22:45.822Z,11.30
2023-02-22T13:25:15.967Z,11.97
2023-02-22T13:28:02.124Z,13.90
2023-02-22T13:30:45.600Z,30.53
2023-02-22T13:33:31.303Z,28.67
2023-02-22T13:36:19.168Z,12.93
2023-02-22T13:39:09.746Z,16.53
2023-02-22T13:41:53.037Z,25.07
2023-02-22T13:44:36.517Z,14.87
2023-02-22T13:47:17.652Z,15.83
2023-02-22T13:49:53.027Z,38.07
2023-02-22T13:52:26.327Z,40.93
2023-02-22T13:55:02.657Z,41.30
2023-02-22T13:57:51.725Z,21.77
2023-02-22T14:00:24.892Z,18.73
2023-02-22T14:03:01.486Z,18.67
2023-02-22T14:05:43.042Z,167.17
2023-02-22T14:08:19.102Z,97.33
2023-02-22T14:11:22.450Z,32.13
2023-02-22T14:13:57.189Z,26.67
2023-02-22T14:16:29.343Z,27.03
2023-02-22T14:19:15.710Z,23.70
2023-02-22T14:22:03.819Z,19.67
2023-02-22T14:24:43.239Z,13.73
2023-02-22T14:27:11.619Z,21.47
2023-02-22T14:29:49.039Z,23.43
2023-02-22T14:32:17.848Z,13.10
2023-02-22T14:34:49.634Z,10.63
2023-02-22T14:37:29.638Z,17.57
2023-02-22T14:40:19.608Z,12.30
2023-02-22T14:42:51.057Z,11.27
2023-02-22T14:45:33.504Z,13.63
2023-02-22T14:48:21.077Z,16.70
2023-02-22T14:50:54.528Z,28.90
2023-02-22T14:53:27.448Z,59.43
2023-02-22T14:56:07.111Z,49.03
2023-02-22T14:58:57.320Z,27.17
2023-02-22T15:04:26.791Z,20.00
2023-02-22T15:06:56.247Z,13.40
2023-02-22T15:09:34.664Z,16.13
2023-02-22T15:12:04.910Z,11.93
2023-02-22T15:14:38.071Z,13.93
2023-02-22T15:17:14.742Z,12.07
2023-02-22T15:19:42.462Z,12.40
2023-02-22T15:22:22.773Z,8.77
2023-02-22T15:25:15.982Z,10.47
2023-02-22T15:27:47.598Z,11.47
2023-02-22T15:30:23.965Z,13.10
2023-02-22T15:33:03.515Z,21.87
2023-02-22T15:35:33.576Z,49.50
2023-02-22T15:38:06.805Z,59.30
2023-02-22T15:40:35.530Z,53.87
2023-02-22T15:43:09.061Z,36.00
2023-02-22T15:45:43.057Z,24.27
2023-02-22T15:48:14.668Z,21.37
2023-02-22T15:51:07.310Z,20.97
2023-02-22T15:53:49.661Z,23.43
2023-02-22T15:56:19.987Z,20.13
2023-02-22T15:58:48.001Z,15.77
2023-02-22T16:01:19.264Z,19.63
2023-02-22T16:03:47.953Z,22.93
2023-02-22T16:06:54.212Z,29.87
2023-02-22T16:09:29.027Z,42.23
2023-02-22T16:12:09.944Z,46.90
2023-02-22T16:14:36.722Z,55.23
2023-02-22T16:17:49.478Z,62.70
2023-02-22T16:20:24.998Z,56.80
2023-02-22T16:22:52.080Z,51.20
2023-02-22T16:25:19.006Z,45.33
2023-02-22T16:27:53.373Z,33.13
2023-02-22T16:30:34.192Z,30.97
2023-02-22T16:33:05.663Z,30.10
2023-02-22T16:35:35.830Z,28.37
2023-02-22T16:38:06.017Z,21.27
2023-02-22T16:40:35.876Z,22.97
2023-02-22T16:43:24.588Z,27.57
2023-02-22T16:45:53.313Z,31.27
2023-02-22T16:48:23.954Z,33.50
2023-02-22T16:50:53.136Z,80.00
2023-02-22T16:53:23.777Z,84.70
2023-02-22T16:55:57.858Z,108.17
2023-02-22T16:58:29.402Z,132.67
2023-02-22T17:00:57.632Z,550.50
2023-02-22T17:03:26.555Z,643.37
2023-02-22T17:05:53.801Z,752.03
2023-02-22T17:08:20.681Z,591.57
2023-02-22T17:10:51.629Z,202.03
2023-02-22T17:13:27.152Z,125.47
2023-02-22T17:15:57.566Z,374.07
2023-02-22T17:18:28.698Z,629.57
2023-02-22T17:20:56.210Z,546.23
2023-02-22T17:23:24.402Z,558.13
2023-02-22T17:25:55.340Z,576.20
2023-02-22T17:28:24.885Z,543.67
2023-02-22T17:30:54.014Z,289.00
2023-02-22T17:33:26.838Z,175.67
2023-02-22T17:35:55.961Z,136.17
2023-02-22T17:38:23.633Z,112.37
2023-02-22T17:40:54.985Z,112.90
2023-02-22T17:43:22.021Z,104.00
2023-02-22T17:45:49.161Z,86.83
2023-02-22T17:48:17.222Z,68.53
2023-02-22T17:50:46.566Z,60.67
2023-02-22T17:53:14.167Z,64.77
2023-02-22T17:55:43.247Z,59.93
2023-02-22T17:58:20.447Z,72.27
2023-02-22T18:00:50.858Z,54.87
2023-02-22T18:03:25.881Z,90.10
2023-02-22T18:06:00.058Z,93.03
2023-02-22T18:08:29.124Z,71.13
2023-02-22T18:11:02.102Z,52.23
2023-02-22T18:13:28.963Z,51.67
2023-02-22T18:16:05.250Z,48.00
2023-02-22T18:18:32.809Z,45.43
2023-02-22T18:21:00.032Z,47.60
2023-02-22T18:23:29.237Z,51.43
2023-02-22T18:26:09.611Z,48.00
2023-02-22T18:28:37.341Z,57.37
2023-02-22T18:31:09.671Z,61.77
2023-02-22T18:33:36.812Z,66.43
2023-02-22T18:36:04.690Z,60.17
2023-02-22T18:38:31.641Z,104.03
2023-02-22T18:41:06.824Z,118.80
2023-02-22T18:43:36.809Z,90.00
2023-02-22T18:46:12.460Z,85.07
2023-02-22T18:48:40.050Z,82.00
2023-02-22T18:51:10.444Z,102.33
2023-02-22T18:53:40.973Z,80.57
2023-02-22T18:56:11.142Z,74.97
2023-02-22T18:58:38.986Z,65.60
2023-02-22T19:01:07.116Z,55.03
2023-02-22T19:03:38.288Z,41.67
2023-02-22T19:06:08.887Z,36.73
2023-02-22T19:08:39.703Z,35.37
2023-02-22T19:11:10.638Z,29.50
2023-02-22T19:13:38.466Z,29.97
2023-02-22T19:16:07.535Z,27.97
2023-02-22T19:18:34.803Z,30.07
2023-02-22T19:21:10.706Z,32.67
2023-02-22T19:23:45.427Z,30.00
2023-02-22T19:26:24.225Z,28.53
2023-02-22T19:28:52.819Z,31.97
2023-02-22T19:31:38.952Z,27.83
2023-02-22T19:34:09.664Z,28.37
2023-02-22T19:36:47.429Z,32.63
2023-02-22T19:39:16.289Z,32.97
2023-02-22T19:41:43.306Z,31.13
2023-02-22T19:44:10.660Z,34.60
2023-02-22T19:46:38.088Z,28.90
2023-02-22T19:49:06.036Z,32.57
2023-02-22T19:51:33.141Z,39.57
2023-02-22T19:54:05.830Z,44.57
2023-02-22T19:56:35.432Z,40.07
2023-02-22T19:59:09.661Z,35.03
2023-02-22T20:01:37.140Z,40.13
2023-02-22T20:04:06.738Z,82.07
2023-02-22T20:06:41.735Z,60.53
2023-02-22T20:09:13.986Z,42.70
2023-02-22T20:11:41.032Z,34.80
2023-02-22T20:14:08.047Z,36.83
2023-02-22T20:16:35.779Z,34.50
2023-02-22T20:19:02.830Z,37.77
2023-02-22T20:21:34.484Z,29.33
2023-02-22T20:24:04.155Z,36.70
2023-02-22T20:26:36.779Z,37.37
2023-02-22T20:29:05.044Z,33.60
2023-02-22T20:31:33.237Z,34.00
2023-02-22T20:34:01.494Z,36.13
2023-02-22T20:36:30.461Z,36.67
2023-02-22T20:38:59.320Z,37.70
2023-02-22T20:41:32.480Z,32.70
2023-02-22T20:44:01.424Z,32.37
2023-02-22T20:46:31.687Z,32.93
2023-02-22T20:49:00.559Z,31.47
2023-02-22T20:51:29.010Z,31.67
2023-02-22T20:53:59.954Z,50.80
2023-02-22T20:56:28.912Z,47.80
2023-02-22T20:58:56.953Z,64.10
2023-02-22T21:01:23.951Z,58.73
2023-02-22T21:03:51.451Z,52.87
2023-02-22T21:06:21.603Z,60.37
2023-02-22T21:08:56.586Z,47.10
2023-02-22T21:11:25.738Z,50.37
2023-02-22T21:13:52.751Z,46.67
2023-02-22T21:16:25.389Z,48.40
2023-02-22T21:18:54.406Z,48.60
2023-02-22T21:21:22.411Z,48.27
2023-02-22T21:23:52.769Z,58.33
2023-02-22T21:26:25.315Z,68.60
2023-02-22T21:28:53.240Z,53.73
2023-02-22T21:31:25.629Z,56.97
2023-02-22T21:33:56.504Z,46.37
2023-02-22T21:36:27.069Z,57.97
2023-02-22T21:39:01.090Z,51.67
2023-02-22T21:41:33.392Z,48.73
2023-02-22T21:44:00.783Z,50.87
2023-02-22T21:46:32.137Z,53.90
2023-02-22T21:48:59.281Z,58.00
2023-02-22T21:51:35.702Z,61.37
2023-02-22T21:54:05.912Z,62.87
2023-02-22T21:56:36.973Z,62.83
2023-02-22T21:59:24.040Z,66.93
2023-02-22T22:01:58.487Z,79.70
2023-02-22T22:04:32.104Z,71.90
2023-02-22T22:07:01.800Z,81.27
2023-02-22T22:09:35.963Z,81.47
2023-02-22T22:12:06.646Z,92.93
2023-02-22T22:14:37.244Z,120.57
2023-02-22T22:17:11.306Z,97.93
2023-02-22T22:19:46.355Z,102.03
2023-02-22T22:22:13.724Z,99.53
2023-02-22T22:24:47.430Z,99.43
2023-02-22T22:27:16.759Z,85.00
2023-02-22T22:29:44.720Z,75.93
2023-02-22T22:32:15.008Z,86.53
2023-02-22T22:34:43.876Z,83.33
2023-02-22T22:37:11.137Z,78.33
2023-02-22T22:39:38.750Z,70.93
2023-02-22T22:42:05.935Z,100.73
2023-02-22T22:44:41.637Z,84.37
2023-02-22T22:47:17.855Z,85.13
2023-02-22T22:50:08.356Z,57.33
2023-02-22T22:52:39.734Z,63.93
2023-02-22T22:55:12.731Z,53.97
2023-02-22T22:57:41.258Z,58.57
2023-02-22T23:00:37.276Z,58.37
2023-02-22T23:03:05.905Z,57.20
2023-02-22T23:05:39.648Z,49.90
2023-02-22T23:08:10.775Z,63.70
2023-02-22T23:10:46.542Z,54.63
2023-02-22T23:13:17.341Z,59.67
2023-02-22T23:15:49.033Z,58.13
2023-02-22T23:18:21.953Z,52.47
2023-02-22T23:20:56.327Z,53.17
2023-02-22T23:26:14.872Z,48.67
2023-02-22T23:28:44.298Z,43.83
2023-02-22T23:31:17.581Z,45.00
2023-02-22T23:38:30.681Z,47.93
2023-02-22T23:41:05.818Z,51.87
2023-02-22T23:43:33.514Z,53.27
2023-02-22T23:46:11.433Z,53.67
2023-02-22T23:48:43.405Z,46.70
2023-02-22T23:51:31.722Z,42.13
2023-02-22T23:53:58.662Z,48.57
2023-02-22T23:56:27.319Z,50.00
2023-02-22T23:58:57.715Z,43.87
